sensor_id;sensor_type;location;lat;lon;timestamp;pressure;altitude;pressure_sealevel;temperature;humidity
72409;BME280;60402;48.082;11.628;2023-11-21T00:00:49;94856.25;;;6.71;100.00
72409;BME280;60402;48.082;11.628;2023-11-21T00:03:35;94880.94;;;6.80;100.00
72409;BME280;60402;48.082;11.628;2023-11-21T00:06:21;94841.44;;;6.71;100.00
72409;BME280;60402;48.082;11.628;2023-11-21T00:09:06;94852.84;;;6.80;100.00
72409;BME280;60402;48.082;11.628;2023-11-21T00:11:53;94842.78;;;6.82;100.00
72409;BME280;60402;48.082;11.628;2023-11-21T00:14:39;94862.78;;;6.84;100.00
72409;BME280;60402;48.082;11.628;2023-11-21T00:17:25;94851.78;;;6.74;100.00
72409;BME280;60402;48.082;11.628;2023-11-21T00:20:10;94847.75;;;6.75;100.00
72409;BME280;60402;48.082;11.628;2023-11-21T00:22:58;94808.50;;;6.55;100.00
72409;BME280;60402;48.082;11.628;2023-11-21T00:25:45;94805.13;;;6.44;100.00
72409;BME280;60402;48.082;11.628;2023-11-21T00:28:30;94830.44;;;6.60;100.00
72409;BME280;60402;48.082;11.628;2023-11-21T00:31:16;94850.56;;;6.75;100.00
72409;BME280;60402;48.082;11.628;2023-11-21T00:34:03;94833.75;;;6.55;100.00
72409;BME280;60402;48.082;11.628;2023-11-21T00:36:50;94840.88;;;6.59;100.00
72409;BME280;60402;48.082;11.628;2023-11-21T00:39:36;94813.13;;;6.45;100.00
72409;BME280;60402;48.082;11.628;2023-11-21T00:42:21;94814.91;;;6.55;100.00
72409;BME280;60402;48.082;11.628;2023-11-21T00:45:08;94828.25;;;6.68;100.00
72409;BME280;60402;48.082;11.628;2023-11-21T00:47:54;94815.88;;;6.65;100.00
72409;BME280;60402;48.082;11.628;2023-11-21T00:50:39;94817.38;;;6.70;100.00
72409;BME280;60402;48.082;11.628;2023-11-21T00:53:25;94814.00;;;6.58;100.00
72409;BME280;60402;48.082;11.628;2023-11-21T00:56:11;94800.66;;;6.46;100.00
72409;BME280;60402;48.082;11.628;2023-11-21T00:58:57;94798.00;;;6.39;100.00
72409;BME280;60402;48.082;11.628;2023-11-21T01:01:43;94814.13;;;6.35;100.00
72409;BME280;60402;48.082;11.628;2023-11-21T01:04:28;94834.41;;;6.43;100.00
72409;BME280;60402;48.082;11.628;2023-11-21T01:07:14;94797.97;;;6.23;100.00
72409;BME280;60402;48.082;11.628;2023-11-21T01:10:00;94806.59;;;6.12;100.00
72409;BME280;60402;48.082;11.628;2023-11-21T01:12:45;94825.28;;;6.19;100.00
72409;BME280;60402;48.082;11.628;2023-11-21T01:15:31;94813.13;;;6.05;100.00
72409;BME280;60402;48.082;11.628;2023-11-21T01:18:16;94820.34;;;6.26;100.00
72409;BME280;60402;48.082;11.628;2023-11-21T01:21:02;94817.16;;;6.24;100.00
72409;BME280;60402;48.082;11.628;2023-11-21T01:23:48;94762.97;;;5.87;100.00
72409;BME280;60402;48.082;11.628;2023-11-21T01:26:34;94794.56;;;6.11;100.00
72409;BME280;60402;48.082;11.628;2023-11-21T01:29:19;94809.47;;;6.08;100.00
72409;BME280;60402;48.082;11.628;2023-11-21T01:32:05;94803.78;;;5.92;100.00
72409;BME280;60402;48.082;11.628;2023-11-21T01:34:53;94787.66;;;5.76;100.00
72409;BME280;60402;48.082;11.628;2023-11-21T01:37:39;94816.13;;;5.75;100.00
72409;BME280;60402;48.082;11.628;2023-11-21T01:40:24;94824.03;;;5.80;100.00
72409;BME280;60402;48.082;11.628;2023-11-21T01:43:10;94808.19;;;5.93;100.00
72409;BME280;60402;48.082;11.628;2023-11-21T01:45:56;94833.22;;;6.04;100.00
72409;BME280;60402;48.082;11.628;2023-11-21T01:48:42;94809.13;;;5.83;100.00
72409;BME280;60402;48.082;11.628;2023-11-21T01:51:28;94808.19;;;5.93;100.00
72409;BME280;60402;48.082;11.628;2023-11-21T01:54:13;94804.91;;;5.75;100.00
72409;BME280;60402;48.082;11.628;2023-11-21T01:56:59;94821.72;;;5.75;100.00
72409;BME280;60402;48.082;11.628;2023-11-21T01:59:48;94821.34;;;5.73;100.00
72409;BME280;60402;48.082;11.628;2023-11-21T02:02:34;94812.56;;;5.51;100.00
72409;BME280;60402;48.082;11.628;2023-11-21T02:05:20;94811.34;;;5.52;100.00
72409;BME280;60402;48.082;11.628;2023-11-21T02:08:07;94796.19;;;5.69;100.00
72409;BME280;60402;48.082;11.628;2023-11-21T02:10:54;94806.25;;;5.67;100.00
72409;BME280;60402;48.082;11.628;2023-11-21T02:13:40;94793.53;;;5.62;100.00
72409;BME280;60402;48.082;11.628;2023-11-21T02:16:29;94773.38;;;5.47;100.00
72409;BME280;60402;48.082;11.628;2023-11-21T02:19:18;94794.41;;;5.79;100.00
72409;BME280;60402;48.082;11.628;2023-11-21T02:22:10;94798.41;;;5.78;100.00
72409;BME280;60402;48.082;11.628;2023-11-21T02:24:57;94815.66;;;6.00;100.00
72409;BME280;60402;48.082;11.628;2023-11-21T02:27:43;94737.81;;;5.64;100.00
72409;BME280;60402;48.082;11.628;2023-11-21T02:30:29;94808.75;;;6.04;100.00
72409;BME280;60402;48.082;11.628;2023-11-21T02:33:15;94811.22;;;6.02;100.00
72409;BME280;60402;48.082;11.628;2023-11-21T02:36:02;94822.56;;;6.15;100.00
72409;BME280;60402;48.082;11.628;2023-11-21T02:38:47;94805.00;;;6.11;100.00
72409;BME280;60402;48.082;11.628;2023-11-21T02:41:33;94801.69;;;6.16;100.00
72409;BME280;60402;48.082;11.628;2023-11-21T02:44:20;94819.34;;;6.17;100.00
72409;BME280;60402;48.082;11.628;2023-11-21T02:47:05;94811.19;;;6.22;100.00
72409;BME280;60402;48.082;11.628;2023-11-21T02:49:51;94810.19;;;6.12;100.00
72409;BME280;60402;48.082;11.628;2023-11-21T02:52:37;94828.16;;;6.15;100.00
72409;BME280;60402;48.082;11.628;2023-11-21T02:55:24;94821.69;;;6.18;100.00
72409;BME280;60402;48.082;11.628;2023-11-21T02:58:10;94830.31;;;6.27;100.00
72409;BME280;60402;48.082;11.628;2023-11-21T03:00:56;94786.88;;;5.96;100.00
72409;BME280;60402;48.082;11.628;2023-11-21T03:03:41;94802.28;;;6.07;100.00
72409;BME280;60402;48.082;11.628;2023-11-21T03:06:27;94811.25;;;6.19;100.00
72409;BME280;60402;48.082;11.628;2023-11-21T03:09:13;94783.00;;;6.09;100.00
72409;BME280;60402;48.082;11.628;2023-11-21T03:11:59;94790.91;;;6.14;100.00
72409;BME280;60402;48.082;11.628;2023-11-21T03:14:44;94806.59;;;6.32;100.00
72409;BME280;60402;48.082;11.628;2023-11-21T03:17:30;94790.56;;;6.12;100.00
72409;BME280;60402;48.082;11.628;2023-11-21T03:20:16;94787.53;;;6.23;100.00
72409;BME280;60402;48.082;11.628;2023-11-21T03:23:01;94788.69;;;6.26;100.00
72409;BME280;60402;48.082;11.628;2023-11-21T03:25:47;94797.78;;;6.30;100.00
72409;BME280;60402;48.082;11.628;2023-11-21T03:28:33;94768.34;;;6.22;100.00
72409;BME280;60402;48.082;11.628;2023-11-21T03:31:19;94777.63;;;6.35;100.00
72409;BME280;60402;48.082;11.628;2023-11-21T03:34:05;94793.47;;;6.45;100.00
72409;BME280;60402;48.082;11.628;2023-11-21T03:36:50;94702.81;;;5.92;100.00
72409;BME280;60402;48.082;11.628;2023-11-21T03:39:37;94793.88;;;6.44;100.00
72409;BME280;60402;48.082;11.628;2023-11-21T03:42:22;94778.88;;;6.34;100.00
72409;BME280;60402;48.082;11.628;2023-11-21T03:45:09;94763.19;;;6.36;100.00
72409;BME280;60402;48.082;11.628;2023-11-21T03:47:54;94794.00;;;6.56;100.00
72409;BME280;60402;48.082;11.628;2023-11-21T03:50:40;94794.16;;;6.49;100.00
72409;BME280;60402;48.082;11.628;2023-11-21T03:53:26;94780.38;;;6.38;100.00
72409;BME280;60402;48.082;11.628;2023-11-21T03:56:11;94788.28;;;6.44;100.00
72409;BME280;60402;48.082;11.628;2023-11-21T03:58:57;94777.03;;;6.27;100.00
72409;BME280;60402;48.082;11.628;2023-11-21T04:01:42;94800.16;;;6.51;100.00
72409;BME280;60402;48.082;11.628;2023-11-21T04:04:28;94791.88;;;6.44;100.00
72409;BME280;60402;48.082;11.628;2023-11-21T04:07:14;94781.25;;;6.35;100.00
72409;BME280;60402;48.082;11.628;2023-11-21T04:09:59;94770.53;;;6.30;100.00
72409;BME280;60402;48.082;11.628;2023-11-21T04:12:45;94774.84;;;6.35;100.00
72409;BME280;60402;48.082;11.628;2023-11-21T04:15:31;94783.09;;;6.42;100.00
72409;BME280;60402;48.082;11.628;2023-11-21T04:18:16;94753.63;;;6.34;100.00
72409;BME280;60402;48.082;11.628;2023-11-21T04:21:02;94775.66;;;6.35;100.00
72409;BME280;60402;48.082;11.628;2023-11-21T04:23:48;94766.13;;;6.29;100.00
72409;BME280;60402;48.082;11.628;2023-11-21T04:26:34;94782.63;;;6.27;100.00
72409;BME280;60402;48.082;11.628;2023-11-21T04:29:19;94792.19;;;6.30;100.00
72409;BME280;60402;48.082;11.628;2023-11-21T04:32:05;94810.31;;;6.45;100.00
72409;BME280;60402;48.082;11.628;2023-11-21T04:34:51;94797.22;;;6.38;100.00
72409;BME280;60402;48.082;11.628;2023-11-21T04:37:36;94797.38;;;6.31;100.00
72409;BME280;60402;48.082;11.628;2023-11-21T04:40:22;94785.00;;;6.29;100.00
72409;BME280;60402;48.082;11.628;2023-11-21T04:43:08;94726.13;;;5.89;100.00
72409;BME280;60402;48.082;11.628;2023-11-21T04:45:54;94759.34;;;6.10;100.00
72409;BME280;60402;48.082;11.628;2023-11-21T04:48:40;94797.59;;;6.40;100.00
72409;BME280;60402;48.082;11.628;2023-11-21T04:51:26;94787.66;;;6.36;100.00
72409;BME280;60402;48.082;11.628;2023-11-21T04:54:12;94798.19;;;6.48;100.00
72409;BME280;60402;48.082;11.628;2023-11-21T04:56:58;94778.66;;;6.25;100.00
72409;BME280;60402;48.082;11.628;2023-11-21T04:59:44;94800.91;;;6.35;100.00
72409;BME280;60402;48.082;11.628;2023-11-21T05:02:30;94798.31;;;6.25;100.00
72409;BME280;60402;48.082;11.628;2023-11-21T05:05:16;94799.28;;;6.34;100.00
72409;BME280;60402;48.082;11.628;2023-11-21T05:08:02;94792.63;;;6.28;100.00
72409;BME280;60402;48.082;11.628;2023-11-21T05:10:48;94787.19;;;6.21;100.00
72409;BME280;60402;48.082;11.628;2023-11-21T05:13:37;94810.59;;;6.51;100.00
72409;BME280;60402;48.082;11.628;2023-11-21T05:16:25;94805.50;;;6.46;100.00
72409;BME280;60402;48.082;11.628;2023-11-21T05:19:13;94796.94;;;6.33;100.00
72409;BME280;60402;48.082;11.628;2023-11-21T05:21:58;94815.13;;;6.45;100.00
72409;BME280;60402;48.082;11.628;2023-11-21T05:24:45;94819.06;;;6.47;100.00
72409;BME280;60402;48.082;11.628;2023-11-21T05:27:31;94807.44;;;6.29;100.00
72409;BME280;60402;48.082;11.628;2023-11-21T05:30:17;94818.59;;;6.32;100.00
72409;BME280;60402;48.082;11.628;2023-11-21T05:33:02;94806.44;;;6.19;100.00
72409;BME280;60402;48.082;11.628;2023-11-21T05:35:48;94837.84;;;6.30;100.00
72409;BME280;60402;48.082;11.628;2023-11-21T05:38:35;94803.69;;;6.15;100.00
72409;BME280;60402;48.082;11.628;2023-11-21T05:41:21;94806.81;;;6.21;100.00
72409;BME280;60402;48.082;11.628;2023-11-21T05:44:07;94824.22;;;6.32;100.00
72409;BME280;60402;48.082;11.628;2023-11-21T05:46:52;94795.28;;;6.35;100.00
72409;BME280;60402;48.082;11.628;2023-11-21T05:49:38;94815.41;;;6.30;100.00
72409;BME280;60402;48.082;11.628;2023-11-21T05:52:24;94803.13;;;6.24;100.00
72409;BME280;60402;48.082;11.628;2023-11-21T05:55:10;94817.22;;;6.21;100.00
72409;BME280;60402;48.082;11.628;2023-11-21T05:57:55;94819.69;;;6.19;100.00
72409;BME280;60402;48.082;11.628;2023-11-21T06:00:41;94835.72;;;6.38;100.00
72409;BME280;60402;48.082;11.628;2023-11-21T06:03:27;94813.34;;;6.14;100.00
72409;BME280;60402;48.082;11.628;2023-11-21T06:06:12;94813.78;;;6.33;100.00
72409;BME280;60402;48.082;11.628;2023-11-21T06:08:58;94815.66;;;6.20;100.00
72409;BME280;60402;48.082;11.628;2023-11-21T06:11:44;94777.75;;;5.92;100.00
72409;BME280;60402;48.082;11.628;2023-11-21T06:14:29;94833.25;;;6.20;100.00
72409;BME280;60402;48.082;11.628;2023-11-21T06:17:15;94843.19;;;6.25;100.00
72409;BME280;60402;48.082;11.628;2023-11-21T06:20:01;94852.69;;;6.51;100.00
72409;BME280;60402;48.082;11.628;2023-11-21T06:22:50;94851.47;;;6.32;100.00
72409;BME280;60402;48.082;11.628;2023-11-21T06:25:35;94835.78;;;6.14;100.00
72409;BME280;60402;48.082;11.628;2023-11-21T06:28:22;94820.31;;;6.06;100.00
72409;BME280;60402;48.082;11.628;2023-11-21T06:31:08;94820.31;;;6.06;100.00
72409;BME280;60402;48.082;11.628;2023-11-21T06:33:53;94857.81;;;6.36;100.00
72409;BME280;60402;48.082;11.628;2023-11-21T06:36:39;94868.16;;;6.39;100.00
72409;BME280;60402;48.082;11.628;2023-11-21T06:39:26;94850.41;;;6.26;100.00
72409;BME280;60402;48.082;11.628;2023-11-21T06:42:13;94807.31;;;5.96;100.00
72409;BME280;60402;48.082;11.628;2023-11-21T06:45:00;94872.97;;;6.38;100.00
72409;BME280;60402;48.082;11.628;2023-11-21T06:47:49;94867.03;;;6.36;100.00
72409;BME280;60402;48.082;11.628;2023-11-21T06:50:34;94846.56;;;6.16;100.00
72409;BME280;60402;48.082;11.628;2023-11-21T06:53:20;94845.44;;;6.13;100.00
72409;BME280;60402;48.082;11.628;2023-11-21T06:56:15;94887.66;;;6.46;100.00
72409;BME280;60402;48.082;11.628;2023-11-21T06:59:01;94870.63;;;6.37;100.00
72409;BME280;60402;48.082;11.628;2023-11-21T07:01:46;94872.41;;;6.27;100.00
72409;BME280;60402;48.082;11.628;2023-11-21T07:04:33;94860.81;;;6.25;100.00
72409;BME280;60402;48.082;11.628;2023-11-21T07:07:19;94859.25;;;6.24;100.00
72409;BME280;60402;48.082;11.628;2023-11-21T07:10:05;94859.53;;;6.30;100.00
72409;BME280;60402;48.082;11.628;2023-11-21T07:12:51;94858.72;;;6.29;100.00
72409;BME280;60402;48.082;11.628;2023-11-21T07:15:36;94860.53;;;6.39;100.00
72409;BME280;60402;48.082;11.628;2023-11-21T07:18:22;94893.06;;;6.57;100.00
72409;BME280;60402;48.082;11.628;2023-11-21T07:21:08;94881.81;;;6.57;100.00
72409;BME280;60402;48.082;11.628;2023-11-21T07:23:54;94898.09;;;6.65;100.00
72409;BME280;60402;48.082;11.628;2023-11-21T07:26:40;94887.16;;;6.51;100.00
72409;BME280;60402;48.082;11.628;2023-11-21T07:29:25;94910.81;;;6.70;100.00
72409;BME280;60402;48.082;11.628;2023-11-21T07:32:11;94910.47;;;6.68;100.00
72409;BME280;60402;48.082;11.628;2023-11-21T07:34:58;94878.19;;;6.40;100.00
72409;BME280;60402;48.082;11.628;2023-11-21T07:37:45;94904.28;;;6.57;100.00
72409;BME280;60402;48.082;11.628;2023-11-21T07:40:32;94858.16;;;6.18;100.00
72409;BME280;60402;48.082;11.628;2023-11-21T07:43:18;94890.53;;;6.43;100.00
72409;BME280;60402;48.082;11.628;2023-11-21T07:46:05;94802.63;;;5.89;100.00
72409;BME280;60402;48.082;11.628;2023-11-21T07:48:50;94874.28;;;6.34;100.00
72409;BME280;60402;48.082;11.628;2023-11-21T07:51:37;94863.06;;;6.34;100.00
72409;BME280;60402;48.082;11.628;2023-11-21T07:54:24;94865.56;;;6.28;100.00
72409;BME280;60402;48.082;11.628;2023-11-21T07:57:10;94904.88;;;6.68;100.00
72409;BME280;60402;48.082;11.628;2023-11-21T07:59:58;94922.47;;;6.88;100.00
72409;BME280;60402;48.082;11.628;2023-11-21T08:02:44;94912.09;;;6.85;100.00
72409;BME280;60402;48.082;11.628;2023-11-21T08:05:31;94911.38;;;6.81;100.00
72409;BME280;60402;48.082;11.628;2023-11-21T08:08:17;94901.25;;;6.87;100.00
72409;BME280;60402;48.082;11.628;2023-11-21T08:11:04;94910.47;;;7.04;100.00
72409;BME280;60402;48.082;11.628;2023-11-21T08:13:49;94915.97;;;7.11;100.00
72409;BME280;60402;48.082;11.628;2023-11-21T08:16:35;94878.06;;;6.83;100.00
72409;BME280;60402;48.082;11.628;2023-11-21T08:19:21;94908.03;;;7.06;100.00
72409;BME280;60402;48.082;11.628;2023-11-21T08:22:06;94909.56;;;7.11;100.00
72409;BME280;60402;48.082;11.628;2023-11-21T08:24:53;94909.81;;;7.16;100.00
72409;BME280;60402;48.082;11.628;2023-11-21T08:27:41;94921.63;;;7.44;100.00
72409;BME280;60402;48.082;11.628;2023-11-21T08:30:27;94885.38;;;7.13;100.00
72409;BME280;60402;48.082;11.628;2023-11-21T08:33:15;94921.53;;;7.48;100.00
72409;BME280;60402;48.082;11.628;2023-11-21T08:36:01;94899.66;;;7.39;100.00
72409;BME280;60402;48.082;11.628;2023-11-21T08:38:46;94918.91;;;7.40;100.00
72409;BME280;60402;48.082;11.628;2023-11-21T08:41:32;94913.97;;;7.45;100.00
72409;BME280;60402;48.082;11.628;2023-11-21T08:44:18;94916.44;;;7.59;100.00
72409;BME280;60402;48.082;11.628;2023-11-21T08:47:03;94905.81;;;7.50;100.00
72409;BME280;60402;48.082;11.628;2023-11-21T08:49:50;94908.97;;;7.52;100.00
72409;BME280;60402;48.082;11.628;2023-11-21T08:52:39;94911.78;;;7.52;100.00
72409;BME280;60402;48.082;11.628;2023-11-21T08:55:25;94910.03;;;7.75;100.00
72409;BME280;60402;48.082;11.628;2023-11-21T08:58:11;94882.25;;;7.60;100.00
72409;BME280;60402;48.082;11.628;2023-11-21T09:00:58;94919.00;;;7.69;100.00
72409;BME280;60402;48.082;11.628;2023-11-21T09:03:43;94896.88;;;7.72;100.00
72409;BME280;60402;48.082;11.628;2023-11-21T09:06:29;94906.25;;;7.81;100.00
72409;BME280;60402;48.082;11.628;2023-11-21T09:09:15;94908.75;;;8.08;100.00
72409;BME280;60402;48.082;11.628;2023-11-21T09:12:01;94918.25;;;8.14;100.00
72409;BME280;60402;48.082;11.628;2023-11-21T09:14:47;94912.25;;;8.29;100.00
72409;BME280;60402;48.082;11.628;2023-11-21T09:17:33;94933.50;;;8.46;100.00
72409;BME280;60402;48.082;11.628;2023-11-21T09:20:22;94923.63;;;8.54;100.00
72409;BME280;60402;48.082;11.628;2023-11-21T09:23:08;94935.38;;;8.65;100.00
72409;BME280;60402;48.082;11.628;2023-11-21T09:25:53;94925.22;;;8.55;100.00
72409;BME280;60402;48.082;11.628;2023-11-21T09:28:43;94949.13;;;8.63;100.00
72409;BME280;60402;48.082;11.628;2023-11-21T09:31:32;94924.38;;;8.42;100.00
72409;BME280;60402;48.082;11.628;2023-11-21T09:34:19;94955.88;;;8.37;100.00
72409;BME280;60402;48.082;11.628;2023-11-21T09:37:06;94937.09;;;8.47;100.00
72409;BME280;60402;48.082;11.628;2023-11-21T09:39:52;94959.50;;;8.66;100.00
72409;BME280;60402;48.082;11.628;2023-11-21T09:42:49;94963.66;;;8.62;100.00
72409;BME280;60402;48.082;11.628;2023-11-21T09:45:38;94945.16;;;8.61;100.00
72409;BME280;60402;48.082;11.628;2023-11-21T09:48:25;94949.59;;;8.75;100.00
72409;BME280;60402;48.082;11.628;2023-11-21T09:51:11;94942.63;;;8.79;100.00
72409;BME280;60402;48.082;11.628;2023-11-21T09:53:59;94943.00;;;8.81;100.00
72409;BME280;60402;48.082;11.628;2023-11-21T09:56:46;94935.81;;;8.93;100.00
72409;BME280;60402;48.082;11.628;2023-11-21T09:59:32;94930.41;;;8.99;100.00
72409;BME280;60402;48.082;11.628;2023-11-21T10:02:18;94926.72;;;9.14;100.00
72409;BME280;60402;48.082;11.628;2023-11-21T10:05:06;94939.59;;;9.41;99.34
72409;BME280;60402;48.082;11.628;2023-11-21T10:07:53;94924.94;;;9.33;99.60
72409;BME280;60402;48.082;11.628;2023-11-21T10:10:46;94955.16;;;9.33;100.00
72409;BME280;60402;48.082;11.628;2023-11-21T10:13:33;94933.47;;;9.17;99.90
72409;BME280;60402;48.082;11.628;2023-11-21T10:16:22;94942.88;;;9.39;99.03
72409;BME280;60402;48.082;11.628;2023-11-21T10:19:12;94913.78;;;9.30;98.17
72409;BME280;60402;48.082;11.628;2023-11-21T10:22:02;94931.81;;;9.45;98.53
72409;BME280;60402;48.082;11.628;2023-11-21T10:24:49;94939.50;;;9.70;96.71
72409;BME280;60402;48.082;11.628;2023-11-21T10:27:35;94938.81;;;9.66;96.11
72409;BME280;60402;48.082;11.628;2023-11-21T10:30:21;94928.31;;;9.41;96.83
72409;BME280;60402;48.082;11.628;2023-11-21T10:33:07;94940.84;;;9.53;98.27
72409;BME280;60402;48.082;11.628;2023-11-21T10:35:56;94943.91;;;9.58;97.52
72409;BME280;60402;48.082;11.628;2023-11-21T10:38:42;94938.25;;;9.33;99.03
72409;BME280;60402;48.082;11.628;2023-11-21T10:41:28;94945.00;;;9.35;99.04
72409;BME280;60402;48.082;11.628;2023-11-21T10:44:15;94895.63;;;9.18;98.29
72409;BME280;60402;48.082;11.628;2023-11-21T10:47:09;94963.53;;;9.49;99.72
72409;BME280;60402;48.082;11.628;2023-11-21T10:49:57;94912.41;;;9.21;98.39
72409;BME280;60402;48.082;11.628;2023-11-21T10:52:44;94920.09;;;9.34;96.91
72409;BME280;60402;48.082;11.628;2023-11-21T10:55:33;94941.06;;;9.20;98.69
72409;BME280;60402;48.082;11.628;2023-11-21T10:58:19;94925.16;;;9.13;99.78
72409;BME280;60402;48.082;11.628;2023-11-21T11:01:06;94925.72;;;9.21;100.00
72409;BME280;60402;48.082;11.628;2023-11-21T11:03:53;94956.19;;;9.39;99.76
72409;BME280;60402;48.082;11.628;2023-11-21T11:06:42;94944.44;;;9.40;99.56
72409;BME280;60402;48.082;11.628;2023-11-21T11:09:30;94924.69;;;9.15;100.00
72409;BME280;60402;48.082;11.628;2023-11-21T11:12:19;94937.81;;;9.47;99.21
72409;BME280;60402;48.082;11.628;2023-11-21T11:15:05;94933.16;;;9.40;99.53
72409;BME280;60402;48.082;11.628;2023-11-21T11:17:51;94937.91;;;9.43;99.38
72409;BME280;60402;48.082;11.628;2023-11-21T11:20:37;94932.69;;;9.16;99.81
72409;BME280;60402;48.082;11.628;2023-11-21T11:23:49;94938.16;;;9.36;100.00
72409;BME280;60402;48.082;11.628;2023-11-21T11:26:54;94939.94;;;9.17;100.00
72409;BME280;60402;48.082;11.628;2023-11-21T11:30:00;94954.63;;;9.38;100.00
72409;BME280;60402;48.082;11.628;2023-11-21T11:33:21;94927.53;;;9.40;99.15
72409;BME280;60402;48.082;11.628;2023-11-21T11:36:38;94944.81;;;9.55;98.26
72409;BME280;60402;48.082;11.628;2023-11-21T11:39:40;94937.47;;;9.70;98.09
72409;BME280;60402;48.082;11.628;2023-11-21T11:42:29;94926.97;;;9.58;98.76
72409;BME280;60402;48.082;11.628;2023-11-21T11:45:18;94937.69;;;9.76;97.97
72409;BME280;60402;48.082;11.628;2023-11-21T11:48:08;94940.97;;;9.75;98.10
72409;BME280;60402;48.082;11.628;2023-11-21T11:51:04;94917.50;;;9.52;97.20
72409;BME280;60402;48.082;11.628;2023-11-21T11:53:51;94903.88;;;9.51;97.17
72409;BME280;60402;48.082;11.628;2023-11-21T11:56:37;94907.00;;;9.65;96.72
72409;BME280;60402;48.082;11.628;2023-11-21T11:59:23;94938.16;;;9.62;98.19
72409;BME280;60402;48.082;11.628;2023-11-21T12:02:09;94933.41;;;9.59;98.06
72409;BME280;60402;48.082;11.628;2023-11-21T12:04:56;94938.94;;;9.62;97.73
72409;BME280;60402;48.082;11.628;2023-11-21T12:07:50;94911.84;;;9.27;98.29
72409;BME280;60402;48.082;11.628;2023-11-21T12:10:39;94902.03;;;9.06;99.38
72409;BME280;60402;48.082;11.628;2023-11-21T12:13:28;94932.38;;;9.27;99.93
72409;BME280;60402;48.082;11.628;2023-11-21T12:16:13;94926.63;;;9.31;99.69
72409;BME280;60402;48.082;11.628;2023-11-21T12:18:59;94922.22;;;9.30;99.10
72409;BME280;60402;48.082;11.628;2023-11-21T12:21:45;94904.88;;;9.18;99.43
72409;BME280;60402;48.082;11.628;2023-11-21T12:24:31;94938.34;;;9.29;100.00
72409;BME280;60402;48.082;11.628;2023-11-21T12:27:17;94941.63;;;9.53;96.98
72409;BME280;60402;48.082;11.628;2023-11-21T12:30:04;94920.66;;;9.29;97.51
72409;BME280;60402;48.082;11.628;2023-11-21T12:32:51;94944.78;;;9.30;98.95
72409;BME280;60402;48.082;11.628;2023-11-21T12:35:37;94914.66;;;9.27;99.51
72409;BME280;60402;48.082;11.628;2023-11-21T12:38:23;94926.41;;;9.25;100.00
72409;BME280;60402;48.082;11.628;2023-11-21T12:41:10;94883.06;;;9.06;99.11
72409;BME280;60402;48.082;11.628;2023-11-21T12:43:55;94935.88;;;9.44;98.24
72409;BME280;60402;48.082;11.628;2023-11-21T12:46:42;94917.28;;;9.46;97.02
72409;BME280;60402;48.082;11.628;2023-11-21T12:49:30;94933.63;;;9.52;97.77
72409;BME280;60402;48.082;11.628;2023-11-21T12:52:18;94868.31;;;9.02;97.15
72409;BME280;60402;48.082;11.628;2023-11-21T12:55:04;94939.28;;;9.52;97.71
72409;BME280;60402;48.082;11.628;2023-11-21T12:57:54;94922.66;;;9.41;97.97
72409;BME280;60402;48.082;11.628;2023-11-21T13:00:43;94915.16;;;9.51;96.85
72409;BME280;60402;48.082;11.628;2023-11-21T13:03:30;94951.69;;;9.54;96.26
72409;BME280;60402;48.082;11.628;2023-11-21T13:06:17;94914.31;;;9.50;96.07
72409;BME280;60402;48.082;11.628;2023-11-21T13:09:03;94927.91;;;9.55;96.66
72409;BME280;60402;48.082;11.628;2023-11-21T13:11:50;94924.50;;;9.47;96.66
72409;BME280;60402;48.082;11.628;2023-11-21T13:14:40;94933.97;;;9.66;96.43
72409;BME280;60402;48.082;11.628;2023-11-21T13:17:25;94942.44;;;9.79;94.79
72409;BME280;60402;48.082;11.628;2023-11-21T13:20:12;94946.97;;;9.51;95.30
72409;BME280;60402;48.082;11.628;2023-11-21T13:23:09;94940.47;;;9.00;98.78
72409;BME280;60402;48.082;11.628;2023-11-21T13:25:57;94945.28;;;8.57;100.00
72409;BME280;60402;48.082;11.628;2023-11-21T13:28:43;94954.81;;;8.47;100.00
72409;BME280;60402;48.082;11.628;2023-11-21T13:31:32;94958.78;;;8.33;100.00
72409;BME280;60402;48.082;11.628;2023-11-21T13:34:22;94941.66;;;7.95;100.00
72409;BME280;60402;48.082;11.628;2023-11-21T13:37:11;94938.84;;;7.79;100.00
72409;BME280;60402;48.082;11.628;2023-11-21T13:39:56;94931.09;;;7.66;100.00
72409;BME280;60402;48.082;11.628;2023-11-21T13:42:43;94939.47;;;7.70;100.00
72409;BME280;60402;48.082;11.628;2023-11-21T13:45:28;94892.63;;;7.63;100.00
72409;BME280;60402;48.082;11.628;2023-11-21T13:48:15;94921.16;;;8.11;100.00
72409;BME280;60402;48.082;11.628;2023-11-21T13:51:04;94942.16;;;8.23;100.00
72409;BME280;60402;48.082;11.628;2023-11-21T13:54:02;94960.34;;;8.34;100.00
72409;BME280;60402;48.082;11.628;2023-11-21T13:56:50;94950.53;;;8.42;100.00
72409;BME280;60402;48.082;11.628;2023-11-21T13:59:36;94961.41;;;8.40;100.00
72409;BME280;60402;48.082;11.628;2023-11-21T14:02:22;94984.25;;;8.59;100.00
72409;BME280;60402;48.082;11.628;2023-11-21T14:05:17;94958.16;;;8.42;100.00
72409;BME280;60402;48.082;11.628;2023-11-21T14:08:14;94958.84;;;8.46;100.00
72409;BME280;60402;48.082;11.628;2023-11-21T14:11:05;94960.78;;;8.49;100.00
72409;BME280;60402;48.082;11.628;2023-11-21T14:13:52;94949.28;;;8.43;100.00
72409;BME280;60402;48.082;11.628;2023-11-21T14:16:37;94979.63;;;8.52;100.00
72409;BME280;60402;48.082;11.628;2023-11-21T14:19:23;94970.91;;;8.30;100.00
72409;BME280;60402;48.082;11.628;2023-11-21T14:22:12;94956.47;;;8.44;100.00
72409;BME280;60402;48.082;11.628;2023-11-21T14:24:58;94976.59;;;8.59;100.00
72409;BME280;60402;48.082;11.628;2023-11-21T14:27:45;94989.13;;;8.42;100.00
72409;BME280;60402;48.082;11.628;2023-11-21T14:30:31;95007.50;;;8.30;100.00
72409;BME280;60402;48.082;11.628;2023-11-21T14:33:21;94988.69;;;8.11;100.00
72409;BME280;60402;48.082;11.628;2023-11-21T14:36:07;95015.34;;;8.06;100.00